createdAt,value
2022-08-22T00:01:56.934Z,96717.25
2022-08-22T00:04:29.292Z,96709.63
2022-08-22T00:07:20.937Z,96712.78
2022-08-22T00:10:11.059Z,96720.19
2022-08-22T00:12:48.363Z,96708.53
2022-08-22T00:15:43.416Z,96718.88
2022-08-22T00:18:28.631Z,96714.13
2022-08-22T00:21:06.173Z,96723.09
2022-08-22T00:23:46.236Z,96721.78
2022-08-22T00:26:24.698Z,96717.56
2022-08-22T00:29:03.878Z,96716.53
2022-08-22T00:31:36.778Z,96718.91
2022-08-22T00:34:12.396Z,96717.56
2022-08-22T00:36:47.653Z,96720.22
2022-08-22T00:39:36.863Z,96725.50
2022-08-22T00:42:29.513Z,96721.78
2022-08-22T00:45:17.114Z,96715.97
2022-08-22T00:48:05.554Z,96718.91
2022-08-22T00:51:05.908Z,96724.19
2022-08-22T00:53:46.616Z,96721.25
2022-08-22T00:56:35.194Z,96727.06
2022-08-22T00:59:32.568Z,96727.63
2022-08-22T01:02:21.844Z,96715.19
2022-08-22T01:05:20.011Z,96724.44
2022-08-22T01:08:11.662Z,96728.16
2022-08-22T01:10:56.255Z,96722.84
2022-08-22T01:13:39.411Z,96721.25
2022-08-22T01:16:27.298Z,96719.41
2022-08-22T01:19:29.996Z,96718.91
2022-08-22T01:22:38.053Z,96709.88
2022-08-22T01:25:32.521Z,96718.84
2022-08-22T01:28:38.609Z,96722.28
2022-08-22T01:31:28.650Z,96727.06
2022-08-22T01:34:31.737Z,96719.38
2022-08-22T01:37:16.108Z,96724.38
2022-08-22T01:40:10.155Z,96717.53
2022-08-22T01:42:44.806Z,96720.94
2022-08-22T01:45:14.178Z,96721.75
2022-08-22T01:47:49.762Z,96721.22
2022-08-22T01:50:41.506Z,96713.03
2022-08-22T01:53:28.194Z,96720.16
2022-08-22T01:56:09.783Z,96719.88
2022-08-22T01:58:44.289Z,96724.91
2022-08-22T02:01:39.509Z,96726.47
2022-08-22T02:04:24.358Z,96730.72
2022-08-22T02:07:05.751Z,96720.66
2022-08-22T02:10:00.367Z,96720.41
2022-08-22T02:12:42.072Z,96727.00
2022-08-22T02:15:14.701Z,96711.94
2022-08-22T02:18:06.916Z,96706.09
2022-08-22T02:20:48.329Z,96722.50
2022-08-22T02:23:20.355Z,96722.75
2022-08-22T02:26:04.720Z,96716.41
2022-08-22T02:28:58.958Z,96723.03
2022-08-22T02:32:05.315Z,96719.56
2022-08-22T02:34:40.044Z,96709.81
2022-08-22T02:37:24.081Z,96716.38
2022-08-22T02:40:04.292Z,96718.78
2022-08-22T02:42:43.132Z,96723.53
2022-08-22T02:45:29.597Z,96718.25
2022-08-22T02:48:23.904Z,96714.78
2022-08-22T02:51:06.320Z,96707.66
2022-08-22T02:53:48.625Z,96719.00
2022-08-22T02:56:24.460Z,96712.91
2022-08-22T02:58:53.685Z,96719.50
2022-08-22T03:01:35.737Z,96717.66
2022-08-22T03:04:21.461Z,96716.56
2022-08-22T03:07:11.398Z,96729.25
2022-08-22T03:09:56.324Z,96717.59
2022-08-22T03:12:32.019Z,96718.66
2022-08-22T03:15:10.443Z,96721.53
2022-08-22T03:17:50.958Z,96723.13
2022-08-22T03:20:42.275Z,96717.06
2022-08-22T03:23:13.439Z,96725.47
2022-08-22T03:26:00.361Z,96723.09
2022-08-22T03:28:59.164Z,96721.50
2022-08-22T03:31:28.701Z,96718.59
2022-08-22T03:34:21.369Z,96718.88
2022-08-22T03:37:00.492Z,96719.13
2022-08-22T03:39:48.657Z,96724.16
2022-08-22T03:42:41.406Z,96726.00
2022-08-22T03:45:29.346Z,96723.81
2022-08-22T03:48:17.437Z,96730.66
2022-08-22T03:51:05.231Z,96724.03
2022-08-22T03:53:43.976Z,96731.44
2022-08-22T03:56:31.036Z,96732.75
2022-08-22T03:58:57.466Z,96743.03
2022-08-22T04:02:24.672Z,96727.97
2022-08-22T04:05:24.711Z,96733.25
2022-08-22T04:08:02.719Z,96736.69
2022-08-22T04:10:51.782Z,96743.84
2022-08-22T04:13:36.606Z,96745.66
2022-08-22T04:16:11.958Z,96750.41
2022-08-22T04:18:41.350Z,96749.09
2022-08-22T04:21:13.943Z,96746.19
2022-08-22T04:24:02.599Z,96748.81
2022-08-22T04:27:01.543Z,96752.53
2022-08-22T04:29:38.665Z,96753.28
2022-08-22T04:32:15.063Z,96758.88
2022-08-22T04:34:50.658Z,96759.97
2022-08-22T04:37:23.826Z,96754.91
2022-08-22T04:40:01.860Z,96762.94
2022-08-22T04:42:45.282Z,96764.00
2022-08-22T04:45:50.565Z,96762.25
2022-08-22T04:48:34.789Z,96761.00
2022-08-22T04:51:05.703Z,96758.41
2022-08-22T04:54:03.914Z,96752.19
2022-08-22T04:57:07.702Z,96763.94
2022-08-22T04:59:35.794Z,96761.44
2022-08-22T05:02:08.481Z,96760.06
2022-08-22T05:04:47.526Z,96762.59
2022-08-22T05:07:21.230Z,96766.25
2022-08-22T05:09:58.605Z,96769.38
2022-08-22T05:12:37.331Z,96761.44
2022-08-22T05:15:19.003Z,96778.84
2022-08-22T05:17:52.115Z,96776.41
2022-08-22T05:20:22.898Z,96765.72
2022-08-22T05:22:58.145Z,96779.03
2022-08-22T05:25:30.292Z,96781.16
2022-08-22T05:28:08.317Z,96771.66
2022-08-22T05:30:36.101Z,96768.56
2022-08-22T05:33:19.417Z,96772.69
2022-08-22T05:36:17.183Z,96771.91
2022-08-22T05:38:52.189Z,96775.22
2022-08-22T05:41:24.813Z,96770.50
2022-08-22T05:43:53.617Z,96777.44
2022-08-22T05:46:39.998Z,96774.44
2022-08-22T05:49:38.980Z,96773.03
2022-08-22T05:52:30.229Z,96778.38
2022-08-22T05:55:22.018Z,96767.38
2022-08-22T05:57:58.315Z,96762.63
2022-08-22T06:00:32.482Z,96769.19
2022-08-22T06:03:29.000Z,96778.06
2022-08-22T06:05:59.711Z,96775.03
2022-08-22T06:08:38.791Z,96775.84
2022-08-22T06:11:34.309Z,96776.94
2022-08-22T06:14:26.215Z,96772.06
2022-08-22T06:17:02.157Z,96780.34
2022-08-22T06:19:29.140Z,96770.91
2022-08-22T06:21:57.546Z,96779.66
2022-08-22T06:24:27.992Z,96772.69
2022-08-22T06:27:02.027Z,96781.75
2022-08-22T06:29:33.994Z,96778.41
2022-08-22T06:32:07.742Z,96781.19
2022-08-22T06:34:38.236Z,96782.03
2022-08-22T06:37:10.545Z,96772.00
2022-08-22T06:39:42.193Z,96776.09
2022-08-22T06:42:16.269Z,96778.56
2022-08-22T06:44:59.251Z,96782.41
2022-08-22T06:47:30.863Z,96772.56
2022-08-22T06:50:13.521Z,96780.31
2022-08-22T06:52:53.374Z,96776.63
2022-08-22T06:55:20.815Z,96774.28
2022-08-22T06:57:55.712Z,96775.41
2022-08-22T07:00:23.064Z,96777.03
2022-08-22T07:02:58.190Z,96770.31
2022-08-22T07:05:28.530Z,96770.28
2022-08-22T07:07:56.144Z,96771.47
2022-08-22T07:10:24.397Z,96771.88
2022-08-22T07:12:54.133Z,96777.75
2022-08-22T07:15:37.110Z,96773.63
2022-08-22T07:18:15.406Z,96775.22
2022-08-22T07:20:45.260Z,96777.28
2022-08-22T07:23:31.690Z,96770.84
2022-08-22T07:26:12.846Z,96765.72
2022-08-22T07:28:51.234Z,96763.22
2022-08-22T07:31:38.446Z,96765.44
2022-08-22T07:34:44.698Z,96756.94
2022-08-22T07:37:52.482Z,96761.00
2022-08-22T07:40:22.834Z,96760.25
2022-08-22T07:43:02.676Z,96757.19
2022-08-22T07:45:34.907Z,96760.91
2022-08-22T07:48:26.045Z,96759.41
2022-08-22T07:51:15.247Z,96761.41
2022-08-22T07:53:45.573Z,96763.97
2022-08-22T07:56:16.951Z,96762.00
2022-08-22T07:58:47.702Z,96764.38
2022-08-22T08:01:20.773Z,96764.97
2022-08-22T08:03:54.672Z,96764.00
2022-08-22T08:06:24.315Z,96769.72
2022-08-22T08:08:52.856Z,96774.50
2022-08-22T08:11:22.374Z,96770.63
2022-08-22T08:13:54.482Z,96771.75
2022-08-22T08:16:27.780Z,96772.59
2022-08-22T08:18:58.006Z,96767.13
2022-08-22T08:21:42.486Z,96765.53
2022-08-22T08:24:19.545Z,96771.25
2022-08-22T08:27:13.922Z,96766.56
2022-08-22T08:29:48.104Z,96764.53
2022-08-22T08:32:15.426Z,96766.28
2022-08-22T08:34:43.778Z,96765.03
2022-08-22T08:37:51.301Z,96762.72
2022-08-22T08:40:40.096Z,96771.03
2022-08-22T08:43:28.207Z,96768.28
2022-08-22T08:46:14.192Z,96757.69
2022-08-22T08:48:57.384Z,96770.25
2022-08-22T08:51:42.440Z,96764.00
2022-08-22T08:54:37.071Z,96757.97
2022-08-22T08:57:32.381Z,96752.06
2022-08-22T09:00:21.020Z,96750.88
2022-08-22T09:03:15.514Z,96747.06
2022-08-22T09:06:31.129Z,96748.47
2022-08-22T09:09:10.962Z,96748.03
2022-08-22T09:12:00.006Z,96748.75
2022-08-22T09:15:10.068Z,96754.22
2022-08-22T09:17:57.302Z,96755.31
2022-08-22T09:20:47.508Z,96750.13
2022-08-22T09:23:41.804Z,96747.53
2022-08-22T09:26:19.134Z,96749.53
2022-08-22T09:29:07.170Z,96754.47
2022-08-22T09:31:47.623Z,96754.22
2022-08-22T09:34:34.396Z,96749.31
2022-08-22T09:37:21.599Z,96751.16
2022-08-22T09:40:00.737Z,96749.81
2022-08-22T09:43:02.902Z,96754.97
2022-08-22T09:45:52.574Z,96756.72
2022-08-22T09:48:30.538Z,96756.75
2022-08-22T09:51:31.672Z,96751.75
2022-08-22T09:54:21.377Z,96750.66
2022-08-22T09:56:58.283Z,96747.03
2022-08-22T09:59:27.868Z,96749.44
2022-08-22T10:02:24.130Z,96757.34
2022-08-22T10:05:40.636Z,96757.13
2022-08-22T10:08:33.254Z,96752.22
2022-08-22T10:11:09.333Z,96758.31
2022-08-22T10:13:57.274Z,96753.28
2022-08-22T10:16:49.380Z,96752.47
2022-08-22T10:19:28.618Z,96753.34
2022-08-22T10:22:19.301Z,96752.09
2022-08-22T10:25:33.825Z,96750.97
2022-08-22T10:28:13.597Z,96750.56
2022-08-22T10:31:02.163Z,96753.41
2022-08-22T10:33:33.862Z,96747.28
2022-08-22T10:36:13.711Z,96740.16
2022-08-22T10:38:47.254Z,96745.75
2022-08-22T10:41:38.508Z,96749.78
2022-08-22T10:44:27.224Z,96756.53
2022-08-22T10:47:07.747Z,96752.75
2022-08-22T10:49:54.627Z,96752.59
2022-08-22T10:52:31.826Z,96761.53
2022-08-22T10:55:17.522Z,96760.78
2022-08-22T10:57:59.912Z,96758.34
2022-08-22T11:00:50.176Z,96759.63
2022-08-22T11:03:46.528Z,96762.13
2022-08-22T11:06:23.653Z,96758.31
2022-08-22T11:09:10.200Z,96756.78
2022-08-22T11:11:41.663Z,96760.88
2022-08-22T11:14:30.190Z,96763.06
2022-08-22T11:17:28.122Z,96752.31
2022-08-22T11:20:09.066Z,96751.38
2022-08-22T11:22:48.569Z,96747.56
2022-08-22T11:25:35.919Z,96758.44
2022-08-22T11:28:50.891Z,96756.44
2022-08-22T11:31:38.302Z,96752.47
2022-08-22T11:34:44.839Z,96730.44
2022-08-22T11:37:42.783Z,96742.22
2022-08-22T11:40:25.289Z,96741.06
2022-08-22T11:43:05.036Z,96733.31
2022-08-22T11:45:40.791Z,96728.50
2022-08-22T11:48:21.291Z,96721.56
2022-08-22T11:51:00.758Z,96713.81
2022-08-22T11:53:34.935Z,96719.06
2022-08-22T11:56:13.656Z,96719.91
2022-08-22T11:58:58.919Z,96702.41
2022-08-22T12:01:50.917Z,96710.31
2022-08-22T12:04:23.615Z,96710.75
2022-08-22T12:06:59.198Z,96708.53
2022-08-22T12:09:43.634Z,96707.53
2022-08-22T12:12:30.962Z,96691.88
2022-08-22T12:15:45.440Z,96708.59
2022-08-22T12:18:33.214Z,96702.50
2022-08-22T12:21:23.775Z,96696.47
2022-08-22T12:25:02.758Z,96695.19
2022-08-22T12:27:55.515Z,96692.78
2022-08-22T12:30:57.269Z,96683.00
2022-08-22T12:33:45.916Z,96684.44
2022-08-22T12:36:20.720Z,96682.56
2022-08-22T12:39:05.248Z,96676.75
2022-08-22T12:42:07.386Z,96673.41
2022-08-22T12:44:49.293Z,96666.44
2022-08-22T12:47:37.970Z,96665.81
2022-08-22T12:50:36.005Z,96670.09
2022-08-22T12:53:20.318Z,96662.09
2022-08-22T12:56:16.674Z,96657.50
2022-08-22T12:59:19.473Z,96645.38
2022-08-22T13:01:49.108Z,96639.50
2022-08-22T13:04:33.568Z,96643.78
2022-08-22T13:07:05.318Z,96636.97
2022-08-22T13:09:46.102Z,96637.56
2022-08-22T13:12:28.207Z,96640.50
2022-08-22T13:15:32.922Z,96638.19
2022-08-22T13:18:28.715Z,96641.78
2022-08-22T13:20:56.644Z,96648.53
2022-08-22T13:23:39.936Z,96648.00
2022-08-22T13:26:31.601Z,96640.19
2022-08-22T13:29:39.660Z,96636.19
2022-08-22T13:32:04.692Z,96639.38
2022-08-22T13:34:43.577Z,96644.50
2022-08-22T13:37:24.737Z,96647.44
2022-08-22T13:39:58.525Z,96643.69
2022-08-22T13:42:30.432Z,96649.13
2022-08-22T13:45:02.594Z,96649.25
2022-08-22T13:47:32.446Z,96658.47
2022-08-22T13:50:19.133Z,96652.88
2022-08-22T13:52:58.244Z,96649.75
2022-08-22T13:55:32.706Z,96655.31
2022-08-22T13:58:20.984Z,96651.38
2022-08-22T14:01:13.697Z,96651.16
2022-08-22T14:03:48.445Z,96649.50
2022-08-22T14:06:35.397Z,96645.03
2022-08-22T14:09:16.518Z,96651.06
2022-08-22T14:12:08.134Z,96651.94
2022-08-22T14:14:42.819Z,96652.41
2022-08-22T14:17:20.972Z,96654.44
2022-08-22T14:19:58.717Z,96660.91
2022-08-22T14:22:34.596Z,96656.53
2022-08-22T14:25:16.571Z,96645.66
2022-08-22T14:27:49.871Z,96656.09
2022-08-22T14:30:24.458Z,96654.50
2022-08-22T14:32:57.115Z,96653.06
2022-08-22T14:35:34.647Z,96647.22
2022-08-22T14:38:32.495Z,96654.06
2022-08-22T14:41:06.965Z,96647.69
2022-08-22T14:43:33.361Z,96660.56
2022-08-22T14:46:02.384Z,96658.47
2022-08-22T14:48:39.363Z,96651.31
2022-08-22T14:51:22.937Z,96647.13
2022-08-22T14:53:50.165Z,96647.75
2022-08-22T14:56:23.843Z,96664.78
2022-08-22T14:58:59.531Z,96657.53
2022-08-22T15:01:29.944Z,96657.38
2022-08-22T15:04:07.846Z,96662.53
2022-08-22T15:06:57.849Z,96661.75
2022-08-22T15:09:50.541Z,96658.03
2022-08-22T15:12:23.671Z,96657.81
2022-08-22T15:14:54.090Z,96650.84
2022-08-22T15:17:35.318Z,96652.66
2022-08-22T15:20:13.373Z,96644.25
2022-08-22T15:22:45.458Z,96651.81
2022-08-22T15:25:27.425Z,96653.47
2022-08-22T15:27:57.835Z,96654.97
2022-08-22T15:30:35.966Z,96647.13
2022-08-22T15:33:20.864Z,96650.19
2022-08-22T15:35:49.999Z,96653.13
2022-08-22T15:38:32.680Z,96653.38
2022-08-22T15:41:22.102Z,96644.75
2022-08-22T15:43:53.637Z,96643.34
2022-08-22T15:46:23.071Z,96641.44
2022-08-22T15:49:03.020Z,96643.28
2022-08-22T15:51:41.607Z,96637.28
2022-08-22T15:54:24.937Z,96632.97
2022-08-22T15:57:29.735Z,96639.19
2022-08-22T15:59:58.883Z,96627.06
2022-08-22T16:02:40.010Z,96626.19
2022-08-22T16:05:09.631Z,96629.06
2022-08-22T16:07:43.762Z,96631.13
2022-08-22T16:10:46.216Z,96630.41
2022-08-22T16:13:26.940Z,96618.47
2022-08-22T16:16:05.754Z,96629.13
2022-08-22T16:18:36.888Z,96623.25
2022-08-22T16:21:10.520Z,96629.13
2022-08-22T16:23:58.230Z,96624.44
2022-08-22T16:26:24.690Z,96636.50
2022-08-22T16:28:59.441Z,96632.16
2022-08-22T16:31:33.752Z,96639.91
2022-08-22T16:34:46.280Z,96637.06
2022-08-22T16:37:14.539Z,96631.38
2022-08-22T16:39:46.771Z,96632.91
2022-08-22T16:42:15.928Z,96628.63
2022-08-22T16:44:45.361Z,96636.28
2022-08-22T16:47:14.140Z,96624.66
2022-08-22T16:50:00.843Z,96634.06
2022-08-22T16:52:27.554Z,96629.81
2022-08-22T16:54:53.976Z,96636.75
2022-08-22T16:57:50.586Z,96638.38
2022-08-22T17:00:44.400Z,96629.19
2022-08-22T17:03:49.039Z,96636.13
2022-08-22T17:06:43.921Z,96636.84
2022-08-22T17:09:40.181Z,96643.28
2022-08-22T17:12:29.473Z,96635.63
2022-08-22T17:15:33.548Z,96632.47
2022-08-22T17:18:11.843Z,96641.72
2022-08-22T17:21:17.070Z,96646.59
2022-08-22T17:23:59.048Z,96646.94
2022-08-22T17:26:40.888Z,96652.22
2022-08-22T17:29:22.168Z,96661.59
2022-08-22T17:32:19.539Z,96652.56
2022-08-22T17:34:55.683Z,96655.25
2022-08-22T17:37:38.169Z,96649.75
2022-08-22T17:40:23.100Z,96673.69
2022-08-22T17:42:57.048Z,96666.59
2022-08-22T17:45:57.762Z,96667.50
2022-08-22T17:48:38.827Z,96674.25
2022-08-22T17:51:25.301Z,96676.16
2022-08-22T17:54:14.976Z,96674.69
2022-08-22T17:56:47.285Z,96679.22
2022-08-22T17:59:26.035Z,96679.19
2022-08-22T18:01:59.750Z,96688.22
2022-08-22T18:04:47.356Z,96677.91
2022-08-22T18:07:14.048Z,96690.00
2022-08-22T18:09:50.826Z,96695.94
2022-08-22T18:12:24.765Z,96697.53
2022-08-22T18:15:08.718Z,96699.00
2022-08-22T18:17:40.056Z,96705.59
2022-08-22T18:20:26.611Z,96705.50
2022-08-22T18:23:36.281Z,96691.59
2022-08-22T18:26:28.741Z,96703.94
2022-08-22T18:29:03.973Z,96700.22
2022-08-22T18:32:06.925Z,96708.88
2022-08-22T18:34:43.991Z,96708.13
2022-08-22T18:37:33.020Z,96712.94
2022-08-22T18:40:07.954Z,96715.38
2022-08-22T18:42:42.004Z,96717.63
2022-08-22T18:45:16.525Z,96711.38
2022-08-22T18:47:44.223Z,96714.13
2022-08-22T18:50:31.606Z,96715.84
2022-08-22T18:52:59.382Z,96720.81
2022-08-22T18:55:48.997Z,96730.97
2022-08-22T18:58:36.234Z,96729.06
2022-08-22T19:01:32.420Z,96729.75
2022-08-22T19:04:14.572Z,96745.31
2022-08-22T19:06:56.649Z,96746.66
2022-08-22T19:09:43.654Z,96752.84
2022-08-22T19:12:31.997Z,96757.31
2022-08-22T19:15:20.374Z,96757.88
2022-08-22T19:18:03.305Z,96756.47
2022-08-22T19:20:51.486Z,96757.84
2022-08-22T19:23:37.145Z,96761.00
2022-08-22T19:26:33.709Z,96766.31
2022-08-22T19:29:16.043Z,96768.81
2022-08-22T19:31:48.335Z,96774.72
2022-08-22T19:34:25.720Z,96781.16
2022-08-22T19:37:32.281Z,96784.44
2022-08-22T19:40:05.853Z,96781.59
2022-08-22T19:42:35.922Z,96779.00
2022-08-22T19:45:05.245Z,96786.59
2022-08-22T19:47:34.915Z,96796.50
2022-08-22T19:50:10.732Z,96791.25
2022-08-22T19:53:19.962Z,96793.84
2022-08-22T19:56:02.028Z,96783.06
2022-08-22T19:58:47.192Z,96786.59
2022-08-22T20:01:38.957Z,96787.97
2022-08-22T20:04:27.056Z,96789.09
2022-08-22T20:07:14.758Z,96799.72
2022-08-22T20:09:52.032Z,96785.34
2022-08-22T20:12:54.111Z,96792.56
2022-08-22T20:15:23.469Z,96780.44
2022-08-22T20:20:55.608Z,96786.38
2022-08-22T20:23:30.300Z,96793.31
2022-08-22T20:25:57.997Z,96797.53
2022-08-22T20:28:49.736Z,96794.41
2022-08-22T20:31:26.240Z,96801.59
2022-08-22T20:34:00.370Z,96795.22
2022-08-22T20:36:28.567Z,96794.47
2022-08-22T20:39:08.802Z,96795.00
2022-08-22T20:41:40.643Z,96789.22
2022-08-22T20:44:22.454Z,96782.38
2022-08-22T20:46:53.658Z,96780.50
2022-08-22T20:49:34.532Z,96781.63
2022-08-22T20:52:09.736Z,96789.81
2022-08-22T20:54:39.168Z,96789.03
2022-08-22T20:57:19.265Z,96786.94
2022-08-22T20:59:54.645Z,96783.50
2022-08-22T21:02:34.895Z,96788.81
2022-08-22T21:05:13.409Z,96784.31
2022-08-22T21:07:42.921Z,96782.75
2022-08-22T21:10:35.352Z,96784.63
2022-08-22T21:13:06.290Z,96771.16
2022-08-22T21:15:42.456Z,96776.69
2022-08-22T21:18:23.197Z,96777.81
2022-08-22T21:20:50.659Z,96784.16
2022-08-22T21:23:17.944Z,96781.50
2022-08-22T21:26:00.751Z,96776.78
2022-08-22T21:28:57.284Z,96772.56
2022-08-22T21:31:28.719Z,96777.28
2022-08-22T21:33:56.203Z,96778.09
2022-08-22T21:36:27.484Z,96776.78
2022-08-22T21:39:04.324Z,96781.81
2022-08-22T21:41:43.380Z,96781.81
2022-08-22T21:44:30.849Z,96787.09
2022-08-22T21:47:14.871Z,96782.88
2022-08-22T21:50:02.503Z,96779.72
2022-08-22T21:52:31.686Z,96786.59
2022-08-22T21:55:16.368Z,96772.06
2022-08-22T21:57:43.854Z,96787.63
2022-08-22T22:03:01.088Z,96790.50
2022-08-22T22:05:29.530Z,96784.16
2022-08-22T22:07:56.277Z,96783.69
2022-08-22T22:10:23.191Z,96784.47
2022-08-22T22:12:52.790Z,96779.19
2022-08-22T22:15:21.735Z,96789.19
2022-08-22T22:17:48.734Z,96791.81
2022-08-22T22:20:18.150Z,96798.16
2022-08-22T22:22:46.536Z,96790.28
2022-08-22T22:25:40.346Z,96801.91
2022-08-22T22:28:18.559Z,96795.81
2022-08-22T22:30:50.312Z,96792.41
2022-08-22T22:33:18.150Z,96804.75
2022-08-22T22:35:45.055Z,96805.56
2022-08-22T22:38:12.973Z,96805.31
2022-08-22T22:40:41.224Z,96801.59
2022-08-22T22:43:09.942Z,96793.63
2022-08-22T22:45:36.857Z,96806.59
2022-08-22T22:48:04.802Z,96803.69
2022-08-22T22:50:31.654Z,96808.97
2022-08-22T22:52:58.168Z,96804.19
2022-08-22T22:55:25.312Z,96810.56
2022-08-22T22:57:59.180Z,96802.63
2022-08-22T23:00:32.189Z,96810.78
2022-08-22T23:03:01.220Z,96808.66
2022-08-22T23:05:29.798Z,96806.03
2022-08-22T23:07:56.975Z,96815.25
2022-08-22T23:10:23.533Z,96805.22
2022-08-22T23:12:50.102Z,96808.34
2022-08-22T23:15:21.598Z,96800.13
2022-08-22T23:17:48.404Z,96803.88
2022-08-22T23:20:14.857Z,96807.84
2022-08-22T23:22:42.913Z,96813.88
2022-08-22T23:25:09.687Z,96804.09
2022-08-22T23:27:36.640Z,96813.06
2022-08-22T23:30:05.781Z,96813.63
2022-08-22T23:32:32.396Z,96817.53
2022-08-22T23:34:58.938Z,96814.13
2022-08-22T23:37:25.480Z,96813.56
2022-08-22T23:39:52.040Z,96821.75
2022-08-22T23:42:18.995Z,96817.78
2022-08-22T23:44:46.069Z,96818.84
2022-08-22T23:47:14.058Z,96821.25
2022-08-22T23:49:42.098Z,96817.78
2022-08-22T23:52:11.289Z,96813.00
2022-08-22T23:54:37.998Z,96805.03
2022-08-22T23:57:11.642Z,96806.13
2022-08-22T23:59:44.557Z,96817.19
